Time;durP1;ratioP1;P1;durP2;ratioP2;P2;SDS_P1;SDS_P2;PMS_P1;PMS_P2;Temp;Humidity;BMP_temperature;BMP_pressure;BME280_temperature;BME280_humidity;BME280_pressure;Samples;Min_cycle;Max_cycle;Signal;HPM_P1;HPM_P2
2022/07/19 00:01:16;;;;;;;8.93;5.20;;;;;;;;;;5112952;28;20681;-69
2022/07/19 00:03:44;;;;;;;6.70;4.77;;;;;;;;;;5113042;28;20734;-69
2022/07/19 00:06:15;;;;;;;7.77;5.73;;;;;;;;;;5112415;28;20463;-69
2022/07/19 00:08:42;;;;;;;7.80;5.07;;;;;;;;;;5111988;28;20505;-69
2022/07/19 00:11:10;;;;;;;7.90;4.67;;;;;;;;;;5111121;28;20521;-69
2022/07/19 00:13:38;;;;;;;5.27;4.50;;;;;;;;;;5113657;28;20465;-69
2022/07/19 00:16:06;;;;;;;6.17;4.30;;;;;;;;;;5112846;28;20485;-69
2022/07/19 00:18:35;;;;;;;6.70;4.50;;;;;;;;;;5112355;28;20698;-69
2022/07/19 00:21:03;;;;;;;6.93;4.80;;;;;;;;;;5111990;28;20703;-69
2022/07/19 00:23:30;;;;;;;7.40;5.27;;;;;;;;;;5112399;28;20447;-69
2022/07/19 00:25:58;;;;;;;6.77;4.43;;;;;;;;;;5111806;28;20462;-69
2022/07/19 00:28:28;;;;;;;9.27;5.07;;;;;;;;;;5112937;28;20455;-69
2022/07/19 00:30:56;;;;;;;8.77;5.27;;;;;;;;;;5111341;28;20494;-69
2022/07/19 00:33:24;;;;;;;8.20;5.63;;;;;;;;;;5111089;28;20450;-69
2022/07/19 00:35:53;;;;;;;7.17;4.80;;;;;;;;;;5103564;28;20483;-70
2022/07/19 00:38:21;;;;;;;6.70;5.13;;;;;;;;;;5090233;28;20455;-69
2022/07/19 00:40:49;;;;;;;7.70;5.80;;;;;;;;;;5083859;28;20480;-69
2022/07/19 00:43:16;;;;;;;9.77;5.40;;;;;;;;;;5077885;28;20543;-69
2022/07/19 00:45:44;;;;;;;8.90;5.40;;;;;;;;;;5089360;28;20475;-69
2022/07/19 00:48:13;;;;;;;6.00;4.60;;;;;;;;;;5090288;28;20513;-69
2022/07/19 00:50:41;;;;;;;8.83;5.23;;;;;;;;;;5082412;28;20562;-69
2022/07/19 00:53:10;;;;;;;6.90;4.80;;;;;;;;;;5085346;28;21122;-69
2022/07/19 00:55:40;;;;;;;9.10;5.30;;;;;;;;;;5090519;28;20890;-69
2022/07/19 00:58:08;;;;;;;6.83;5.10;;;;;;;;;;5076451;28;20458;-69
2022/07/19 01:00:36;;;;;;;7.87;5.30;;;;;;;;;;5089947;28;20557;-69
2022/07/19 01:03:03;;;;;;;6.93;4.67;;;;;;;;;;5093193;28;20455;-69
2022/07/19 01:05:35;;;;;;;7.20;5.10;;;;;;;;;;5093761;28;20487;-70
2022/07/19 01:08:03;;;;;;;6.27;4.90;;;;;;;;;;5085225;28;20471;-69
2022/07/19 01:10:33;;;;;;;7.97;5.03;;;;;;;;;;5086941;28;20499;-69
2022/07/19 01:13:00;;;;;;;9.87;5.20;;;;;;;;;;5075822;28;20721;-69
2022/07/19 01:15:29;;;;;;;7.17;4.70;;;;;;;;;;5090394;28;20538;-69
2022/07/19 01:17:56;;;;;;;8.27;5.30;;;;;;;;;;5078183;28;20973;-69
2022/07/19 01:20:25;;;;;;;6.10;4.40;;;;;;;;;;5083664;28;20538;-69
2022/07/19 01:22:56;;;;;;;7.93;5.37;;;;;;;;;;5077306;28;20452;-69
2022/07/19 01:25:25;;;;;;;8.33;5.77;;;;;;;;;;5072690;28;20897;-69
2022/07/19 01:27:54;;;;;;;6.70;4.60;;;;;;;;;;5078855;28;20475;-70
2022/07/19 01:30:23;;;;;;;8.00;5.10;;;;;;;;;;5076382;28;20483;-69
2022/07/19 01:32:51;;;;;;;7.30;5.00;;;;;;;;;;5091970;28;20617;-69
2022/07/19 01:35:19;;;;;;;7.63;4.70;;;;;;;;;;5091810;28;20478;-69
2022/07/19 01:37:47;;;;;;;11.43;5.57;;;;;;;;;;5081847;28;21178;-69
2022/07/19 01:40:17;;;;;;;7.90;5.07;;;;;;;;;;5085797;28;20502;-69
2022/07/19 01:42:45;;;;;;;9.07;5.20;;;;;;;;;;5078002;28;20464;-68
2022/07/19 01:45:13;;;;;;;8.40;4.77;;;;;;;;;;5079192;28;20459;-69
2022/07/19 01:47:41;;;;;;;10.00;5.00;;;;;;;;;;5088159;28;20551;-69
2022/07/19 01:50:13;;;;;;;8.13;5.43;;;;;;;;;;5073667;28;20718;-69
2022/07/19 01:52:41;;;;;;;9.10;5.90;;;;;;;;;;5094499;28;20486;-69
2022/07/19 01:55:09;;;;;;;7.80;4.83;;;;;;;;;;5112774;28;20450;-69
2022/07/19 01:57:38;;;;;;;8.60;4.37;;;;;;;;;;5097848;28;20496;-69
2022/07/19 02:00:07;;;;;;;7.27;5.20;;;;;;;;;;5088668;28;20543;-70
2022/07/19 02:02:34;;;;;;;7.77;4.93;;;;;;;;;;5073449;28;20468;-69
2022/07/19 02:08:46;;;;;;;10.87;4.90;;;;;;;;;;5080100;27;20459;-69
2022/07/19 02:14:01;;;;;;;6.77;5.27;;;;;;;;;;5116531;28;20450;-69
2022/07/19 02:16:28;;;;;;;9.83;5.00;;;;;;;;;;5092156;28;20468;-69
2022/07/19 02:18:56;;;;;;;6.93;5.07;;;;;;;;;;5076262;28;20779;-69
2022/07/19 02:21:23;;;;;;;8.27;5.03;;;;;;;;;;5096304;28;20447;-69
2022/07/19 02:23:51;;;;;;;5.33;4.73;;;;;;;;;;5095871;28;20466;-69
2022/07/19 02:26:19;;;;;;;6.70;4.80;;;;;;;;;;5096374;28;20447;-69
2022/07/19 02:28:47;;;;;;;7.77;4.60;;;;;;;;;;5097568;28;20494;-69
2022/07/19 02:31:16;;;;;;;9.57;4.90;;;;;;;;;;5096896;28;20498;-69
2022/07/19 02:33:44;;;;;;;7.00;5.00;;;;;;;;;;5097294;28;20467;-69
2022/07/19 02:36:12;;;;;;;5.97;4.83;;;;;;;;;;5082420;28;20529;-69
2022/07/19 02:38:39;;;;;;;5.77;4.07;;;;;;;;;;5078243;28;20525;-69
2022/07/19 02:41:08;;;;;;;6.90;4.43;;;;;;;;;;5089611;28;20463;-69
2022/07/19 02:43:35;;;;;;;6.77;4.60;;;;;;;;;;5096737;28;20471;-68
2022/07/19 02:46:03;;;;;;;7.60;5.00;;;;;;;;;;5095046;28;20439;-69
2022/07/19 02:48:32;;;;;;;6.97;5.07;;;;;;;;;;5096256;28;20471;-68
2022/07/19 02:51:00;;;;;;;7.27;5.20;;;;;;;;;;5096349;28;21230;-68
2022/07/19 02:53:28;;;;;;;10.70;5.00;;;;;;;;;;5096878;28;20580;-68
2022/07/19 02:55:56;;;;;;;7.47;4.53;;;;;;;;;;5097194;28;20461;-68
2022/07/19 02:58:23;;;;;;;6.73;4.50;;;;;;;;;;5095955;28;20562;-70
2022/07/19 03:00:51;;;;;;;10.93;5.63;;;;;;;;;;5094735;28;21073;-69
2022/07/19 03:06:05;;;;;;;7.50;4.77;;;;;;;;;;5096387;28;20521;-69
2022/07/19 03:08:33;;;;;;;6.43;4.73;;;;;;;;;;5084498;28;20476;-69
2022/07/19 03:11:00;;;;;;;7.67;5.50;;;;;;;;;;5076468;28;20490;-69
2022/07/19 03:13:28;;;;;;;8.80;5.00;;;;;;;;;;5076231;28;20542;-69
2022/07/19 03:15:56;;;;;;;6.27;5.33;;;;;;;;;;5076400;28;20735;-69
2022/07/19 03:18:25;;;;;;;7.37;5.30;;;;;;;;;;5078207;28;20472;-67
2022/07/19 03:20:54;;;;;;;8.37;4.93;;;;;;;;;;5076087;28;20543;-69
2022/07/19 03:23:23;;;;;;;6.47;5.00;;;;;;;;;;5084180;28;20475;-68
2022/07/19 03:25:51;;;;;;;6.10;4.70;;;;;;;;;;5095370;28;20475;-69
2022/07/19 03:28:18;;;;;;;6.23;4.63;;;;;;;;;;5093058;28;20456;-69
2022/07/19 03:30:46;;;;;;;9.53;4.57;;;;;;;;;;5080055;28;20488;-69
2022/07/19 03:33:15;;;;;;;6.57;4.97;;;;;;;;;;5075413;28;21006;-69
2022/07/19 03:35:44;;;;;;;5.63;4.37;;;;;;;;;;5089170;28;20444;-69
2022/07/19 03:38:12;;;;;;;6.10;4.50;;;;;;;;;;5080871;28;20477;-69
2022/07/19 03:40:41;;;;;;;7.50;4.67;;;;;;;;;;5094644;28;20467;-69
2022/07/19 03:43:09;;;;;;;7.13;5.03;;;;;;;;;;5086459;28;20538;-69
2022/07/19 03:45:39;;;;;;;13.73;5.63;;;;;;;;;;5086964;28;21191;-69
2022/07/19 03:48:07;;;;;;;11.43;5.20;;;;;;;;;;5092828;28;20564;-69
2022/07/19 03:50:35;;;;;;;7.40;5.20;;;;;;;;;;5094798;28;20460;-69
2022/07/19 03:53:03;;;;;;;10.50;4.87;;;;;;;;;;5093766;28;20886;-70
2022/07/19 03:55:31;;;;;;;6.90;4.97;;;;;;;;;;5087328;28;20458;-69
2022/07/19 03:58:00;;;;;;;7.80;4.77;;;;;;;;;;5092803;28;20475;-70
2022/07/19 04:00:31;;;;;;;8.47;5.20;;;;;;;;;;5083299;28;20459;-69
2022/07/19 04:02:59;;;;;;;7.13;5.77;;;;;;;;;;5090098;28;20483;-69
2022/07/19 04:05:27;;;;;;;7.40;5.20;;;;;;;;;;5085423;28;20550;-70
2022/07/19 04:07:54;;;;;;;10.23;5.70;;;;;;;;;;5093926;28;20464;-69
2022/07/19 04:10:25;;;;;;;7.07;5.37;;;;;;;;;;5084494;28;20455;-69
2022/07/19 04:12:53;;;;;;;8.40;6.27;;;;;;;;;;5082736;28;20507;-70
2022/07/19 04:15:22;;;;;;;8.13;6.23;;;;;;;;;;5074822;28;20791;-70
2022/07/19 04:17:50;;;;;;;8.80;5.53;;;;;;;;;;5082634;28;20471;-69
2022/07/19 04:20:18;;;;;;;7.33;5.10;;;;;;;;;;5092498;28;20468;-69
2022/07/19 04:22:46;;;;;;;7.57;5.10;;;;;;;;;;5081823;28;21071;-69
2022/07/19 04:25:14;;;;;;;7.03;4.93;;;;;;;;;;5085369;28;20566;-69
2022/07/19 04:27:41;;;;;;;8.37;6.60;;;;;;;;;;5077707;28;20504;-70
2022/07/19 04:30:09;;;;;;;7.47;5.70;;;;;;;;;;5073712;28;20538;-70
2022/07/19 04:32:38;;;;;;;6.70;4.63;;;;;;;;;;5072667;28;20476;-69
2022/07/19 04:35:07;;;;;;;13.03;5.60;;;;;;;;;;5079439;28;20537;-69
2022/07/19 04:37:34;;;;;;;10.17;4.90;;;;;;;;;;5090697;28;21112;-69
2022/07/19 04:40:02;;;;;;;7.77;5.80;;;;;;;;;;5087207;28;20464;-69
2022/07/19 04:42:30;;;;;;;7.90;4.60;;;;;;;;;;5071765;28;20504;-69
2022/07/19 04:45:01;;;;;;;8.50;5.33;;;;;;;;;;5072496;28;20456;-70
2022/07/19 04:47:29;;;;;;;8.87;5.13;;;;;;;;;;5078800;28;20467;-69
2022/07/19 04:49:58;;;;;;;8.37;4.80;;;;;;;;;;5092846;28;20450;-69
2022/07/19 04:52:25;;;;;;;8.83;5.27;;;;;;;;;;5083573;28;20495;-69
2022/07/19 04:54:54;;;;;;;9.30;4.80;;;;;;;;;;5076649;28;20510;-69
2022/07/19 04:57:22;;;;;;;7.80;5.10;;;;;;;;;;5080143;28;20498;-69
2022/07/19 04:59:50;;;;;;;8.70;6.40;;;;;;;;;;5073576;28;20858;-69
2022/07/19 05:02:18;;;;;;;8.40;6.10;;;;;;;;;;5072132;28;20468;-69
2022/07/19 05:04:45;;;;;;;8.63;5.70;;;;;;;;;;5071537;28;20460;-68
2022/07/19 05:07:15;;;;;;;8.47;5.97;;;;;;;;;;5075831;28;21143;-68
2022/07/19 05:09:42;;;;;;;10.13;5.93;;;;;;;;;;5073931;28;20457;-68
2022/07/19 05:12:10;;;;;;;9.43;6.10;;;;;;;;;;5081334;28;20993;-69
2022/07/19 05:14:38;;;;;;;8.57;5.70;;;;;;;;;;5090677;28;20454;-69
2022/07/19 05:17:06;;;;;;;11.67;5.90;;;;;;;;;;5089516;28;20472;-69
2022/07/19 05:19:37;;;;;;;6.90;5.53;;;;;;;;;;5091661;28;20466;-69
2022/07/19 05:22:05;;;;;;;6.33;5.20;;;;;;;;;;5089292;28;20467;-69
2022/07/19 05:24:35;;;;;;;7.50;5.87;;;;;;;;;;5074886;28;20454;-69
2022/07/19 05:27:02;;;;;;;6.70;5.47;;;;;;;;;;5071543;28;20452;-69
2022/07/19 05:29:30;;;;;;;6.43;5.17;;;;;;;;;;5069304;28;20459;-70
2022/07/19 05:31:58;;;;;;;9.60;6.27;;;;;;;;;;5068638;28;20579;-71
2022/07/19 05:34:26;;;;;;;9.00;6.13;;;;;;;;;;5067856;28;20531;-70
2022/07/19 05:36:56;;;;;;;6.73;5.17;;;;;;;;;;5069532;28;20464;-72
2022/07/19 05:39:25;;;;;;;6.30;5.17;;;;;;;;;;5069517;28;20587;-70
2022/07/19 05:41:55;;;;;;;9.07;5.33;;;;;;;;;;5070327;28;20453;-70
2022/07/19 05:44:22;;;;;;;6.63;4.93;;;;;;;;;;5076013;28;20468;-71
2022/07/19 05:46:50;;;;;;;8.50;5.40;;;;;;;;;;5090444;28;20466;-70
2022/07/19 05:49:18;;;;;;;6.83;5.23;;;;;;;;;;5091999;28;20464;-70
2022/07/19 05:51:46;;;;;;;9.30;4.93;;;;;;;;;;5091030;28;20479;-71
2022/07/19 05:54:17;;;;;;;9.70;5.70;;;;;;;;;;5078636;28;21022;-71
2022/07/19 05:56:45;;;;;;;8.40;6.30;;;;;;;;;;5071535;28;20464;-71
2022/07/19 05:59:14;;;;;;;9.87;6.70;;;;;;;;;;5084868;28;20467;-71
2022/07/19 06:01:42;;;;;;;9.27;5.07;;;;;;;;;;5081767;28;21106;-71
2022/07/19 06:04:10;;;;;;;11.37;5.13;;;;;;;;;;5074747;28;20466;-71
2022/07/19 06:06:38;;;;;;;9.40;6.50;;;;;;;;;;5090964;28;20468;-71
2022/07/19 06:09:11;;;;;;;7.40;5.30;;;;;;;;;;5092252;28;20474;-71
2022/07/19 06:11:42;;;;;;;10.33;6.40;;;;;;;;;;5090816;28;20483;-71
2022/07/19 06:14:11;;;;;;;9.00;6.07;;;;;;;;;;5091890;28;20526;-71
2022/07/19 06:16:41;;;;;;;10.23;6.50;;;;;;;;;;5088912;28;20852;-69
2022/07/19 06:19:10;;;;;;;6.93;5.93;;;;;;;;;;5075813;28;20468;-70
2022/07/19 06:21:38;;;;;;;9.20;6.30;;;;;;;;;;5082369;28;20468;-72
2022/07/19 06:24:09;;;;;;;11.90;6.47;;;;;;;;;;5071323;28;20755;-71
2022/07/19 06:26:38;;;;;;;8.83;6.20;;;;;;;;;;5069241;28;20982;-70
2022/07/19 06:29:06;;;;;;;13.67;6.07;;;;;;;;;;5071012;28;20626;-71
2022/07/19 06:31:34;;;;;;;10.10;6.83;;;;;;;;;;5073490;28;20471;-71
2022/07/19 06:34:03;;;;;;;8.60;5.83;;;;;;;;;;5073620;28;20472;-70
2022/07/19 06:36:31;;;;;;;9.97;6.47;;;;;;;;;;5071516;28;20478;-70
2022/07/19 06:38:59;;;;;;;9.50;6.20;;;;;;;;;;5086165;28;20880;-70
2022/07/19 06:41:27;;;;;;;11.73;6.07;;;;;;;;;;5091556;28;20944;-71
2022/07/19 06:43:54;;;;;;;10.30;6.43;;;;;;;;;;5079042;28;20997;-70
2022/07/19 06:46:22;;;;;;;7.87;6.20;;;;;;;;;;5075237;28;20528;-70
2022/07/19 06:48:50;;;;;;;10.50;6.93;;;;;;;;;;5085875;28;20452;-70
2022/07/19 06:51:24;;;;;;;12.07;6.20;;;;;;;;;;5074629;28;20456;-70
2022/07/19 06:53:54;;;;;;;7.73;5.93;;;;;;;;;;5077075;28;20469;-70
2022/07/19 06:56:22;;;;;;;7.87;5.53;;;;;;;;;;5071563;28;20455;-70
2022/07/19 06:58:50;;;;;;;8.93;5.90;;;;;;;;;;5083928;28;21156;-70
2022/07/19 07:01:19;;;;;;;13.63;7.53;;;;;;;;;;5062041;28;20460;-70
2022/07/19 07:03:47;;;;;;;8.63;5.80;;;;;;;;;;5097467;28;20448;-70
2022/07/19 07:06:17;;;;;;;13.27;6.37;;;;;;;;;;5087283;28;20493;-69
2022/07/19 07:08:46;;;;;;;7.70;6.50;;;;;;;;;;5076787;28;20447;-70
2022/07/19 07:11:14;;;;;;;11.40;6.40;;;;;;;;;;5077381;28;20460;-70
2022/07/19 07:13:43;;;;;;;11.27;6.30;;;;;;;;;;5086484;28;20471;-71
2022/07/19 07:16:11;;;;;;;9.70;6.60;;;;;;;;;;5078885;28;20504;-71
2022/07/19 07:18:39;;;;;;;9.60;6.37;;;;;;;;;;5068366;28;20472;-71
2022/07/19 07:21:07;;;;;;;12.90;6.53;;;;;;;;;;5075920;28;20794;-71
2022/07/19 07:23:37;;;;;;;14.90;7.40;;;;;;;;;;5080485;28;20555;-70
2022/07/19 07:26:11;;;;;;;12.03;6.07;;;;;;;;;;5081886;28;20829;-73
2022/07/19 07:28:43;;;;;;;12.23;7.37;;;;;;;;;;5084682;28;20451;-71
2022/07/19 07:31:11;;;;;;;13.63;7.83;;;;;;;;;;5080624;28;20559;-70
2022/07/19 07:33:40;;;;;;;7.80;5.50;;;;;;;;;;5083672;28;20483;-72
2022/07/19 07:36:08;;;;;;;8.43;5.83;;;;;;;;;;5088516;28;20462;-71
2022/07/19 07:38:35;;;;;;;7.40;5.93;;;;;;;;;;5083791;28;20448;-70
2022/07/19 07:41:08;;;;;;;9.30;6.80;;;;;;;;;;5080541;28;20504;-71
2022/07/19 07:43:36;;;;;;;10.57;6.50;;;;;;;;;;5072212;28;20548;-70
2022/07/19 07:46:03;;;;;;;10.33;5.93;;;;;;;;;;5083382;28;20476;-73
2022/07/19 07:48:31;;;;;;;9.20;6.10;;;;;;;;;;5084411;28;20471;-70
2022/07/19 07:50:59;;;;;;;14.57;7.63;;;;;;;;;;5083000;28;20821;-69
2022/07/19 07:53:36;;;;;;;7.50;5.60;;;;;;;;;;5071840;28;20488;-73
2022/07/19 07:56:04;;;;;;;10.10;6.60;;;;;;;;;;5080538;28;20479;-68
2022/07/19 07:58:39;;;;;;;5.13;3.93;;;;;;;;;;5078809;28;20580;-68
2022/07/19 08:01:08;;;;;;;7.10;4.60;;;;;;;;;;5078486;28;20476;-69
2022/07/19 08:03:36;;;;;;;7.23;4.47;;;;;;;;;;5076967;28;20456;-70
2022/07/19 08:06:04;;;;;;;11.50;4.67;;;;;;;;;;5084624;28;21120;-71
2022/07/19 08:08:32;;;;;;;8.10;4.30;;;;;;;;;;5078325;28;20456;-72
2022/07/19 08:11:00;;;;;;;6.10;4.03;;;;;;;;;;5078104;28;20456;-71
2022/07/19 08:13:27;;;;;;;5.37;4.20;;;;;;;;;;5084717;28;20476;-70
2022/07/19 08:15:57;;;;;;;7.03;4.07;;;;;;;;;;5084319;28;20468;-70
2022/07/19 08:18:27;;;;;;;7.85;3.88;;;;;;;;;;5072401;28;20726;-70
2022/07/19 08:20:55;;;;;;;5.80;3.83;;;;;;;;;;5075685;28;20210;-71
2022/07/19 08:23:46;;;;;;;5.63;4.07;;;;;;;;;;5081975;28;20475;-72
2022/07/19 08:26:21;;;;;;;6.20;3.73;;;;;;;;;;5082615;28;20742;-72
2022/07/19 08:28:49;;;;;;;8.13;3.43;;;;;;;;;;5070951;28;20487;-70
2022/07/19 08:31:18;;;;;;;4.90;3.43;;;;;;;;;;5072299;28;21163;-70
2022/07/19 08:33:46;;;;;;;6.27;3.77;;;;;;;;;;5084543;28;20494;-71
2022/07/19 08:36:14;;;;;;;7.73;4.77;;;;;;;;;;5080990;28;20562;-71
2022/07/19 08:38:42;;;;;;;6.17;4.73;;;;;;;;;;5079569;28;20467;-71
2022/07/19 08:41:10;;;;;;;5.17;4.00;;;;;;;;;;5078460;28;20733;-71
2022/07/19 08:43:41;;;;;;;7.37;3.70;;;;;;;;;;5072704;28;20459;-71
2022/07/19 08:46:12;;;;;;;4.73;3.80;;;;;;;;;;5076692;28;21051;-70
2022/07/19 08:48:43;;;;;;;4.80;3.20;;;;;;;;;;5064209;28;20468;-71
2022/07/19 08:51:11;;;;;;;5.60;3.47;;;;;;;;;;5074198;28;20733;-71
2022/07/19 08:53:45;;;;;;;4.87;3.23;;;;;;;;;;5083323;28;20522;-72
2022/07/19 08:58:59;;;;;;;5.33;4.40;;;;;;;;;;5078862;28;20517;-70
2022/07/19 09:01:26;;;;;;;5.67;3.93;;;;;;;;;;5078374;28;20468;-71
2022/07/19 09:04:13;;;;;;;6.27;3.03;;;;;;;;;;5077887;28;20565;-70
2022/07/19 09:06:52;;;;;;;4.70;3.67;;;;;;;;;;5075507;28;20509;-71
2022/07/19 09:09:21;;;;;;;6.37;3.70;;;;;;;;;;5070879;28;20479;-71
2022/07/19 09:11:50;;;;;;;6.13;3.37;;;;;;;;;;5087388;28;20746;-70
2022/07/19 09:14:19;;;;;;;4.67;3.00;;;;;;;;;;5081978;28;20491;-70
2022/07/19 09:16:51;;;;;;;4.50;3.10;;;;;;;;;;5077776;28;20483;-72
2022/07/19 09:19:20;;;;;;;5.73;3.53;;;;;;;;;;5077081;28;20463;-71
2022/07/19 09:21:58;;;;;;;4.97;3.20;;;;;;;;;;5091633;28;20775;-72
2022/07/19 09:24:26;;;;;;;5.70;3.77;;;;;;;;;;5075354;28;20463;-71
2022/07/19 09:27:01;;;;;;;4.57;3.30;;;;;;;;;;5080797;28;20539;-71
2022/07/19 09:29:29;;;;;;;6.00;3.57;;;;;;;;;;5067889;28;20865;-69
2022/07/19 09:32:04;;;;;;;3.80;2.50;;;;;;;;;;5080324;28;20448;-71
2022/07/19 09:34:37;;;;;;;7.03;2.60;;;;;;;;;;5076955;28;20486;-70
2022/07/19 09:37:25;;;;;;;4.83;2.57;;;;;;;;;;5076383;28;20446;-70
2022/07/19 09:40:01;;;;;;;5.00;3.07;;;;;;;;;;5080271;28;20552;-70
2022/07/19 09:42:36;;;;;;;7.97;3.60;;;;;;;;;;5083866;28;20459;-70
2022/07/19 09:45:05;;;;;;;4.23;2.40;;;;;;;;;;5069527;28;20474;-70
2022/07/19 09:47:34;;;;;;;4.10;2.30;;;;;;;;;;5081038;28;20896;-71
2022/07/19 09:50:14;;;;;;;9.03;6.00;;;;;;;;;;5072659;28;20478;-70
2022/07/19 09:52:44;;;;;;;5.30;2.90;;;;;;;;;;5073756;28;21057;-68
2022/07/19 09:55:15;;;;;;;4.63;2.57;;;;;;;;;;5073876;28;20473;-68
2022/07/19 09:57:47;;;;;;;5.10;3.20;;;;;;;;;;5073780;28;20558;-69
2022/07/19 10:00:15;;;;;;;4.10;2.30;;;;;;;;;;5078781;28;20940;-68
2022/07/19 10:02:53;;;;;;;3.97;2.40;;;;;;;;;;5079712;28;20510;-69
2022/07/19 10:05:22;;;;;;;4.50;3.40;;;;;;;;;;5084407;28;20479;-68
2022/07/19 10:07:50;;;;;;;6.37;4.03;;;;;;;;;;5091020;28;21141;-68
2022/07/19 10:10:19;;;;;;;7.97;2.67;;;;;;;;;;5084943;28;20543;-68
2022/07/19 10:12:48;;;;;;;4.37;3.00;;;;;;;;;;5083114;28;20461;-69
2022/07/19 10:15:17;;;;;;;5.30;3.07;;;;;;;;;;5086232;28;21169;-70
2022/07/19 10:17:49;;;;;;;4.33;3.17;;;;;;;;;;5068278;28;20796;-69
2022/07/19 10:20:18;;;;;;;6.27;3.43;;;;;;;;;;5071083;28;20457;-69
2022/07/19 10:22:47;;;;;;;4.70;2.60;;;;;;;;;;5084606;28;20467;-69
2022/07/19 10:25:17;;;;;;;5.20;3.87;;;;;;;;;;5093592;28;20465;-69
2022/07/19 10:27:46;;;;;;;5.60;4.00;;;;;;;;;;5061279;28;20450;-70
2022/07/19 10:30:20;;;;;;;4.77;2.70;;;;;;;;;;5087852;28;20470;-70
2022/07/19 10:32:52;;;;;;;4.13;2.10;;;;;;;;;;5075192;28;20487;-69
2022/07/19 10:35:24;;;;;;;4.70;2.13;;;;;;;;;;5080504;28;20448;-70
2022/07/19 10:37:54;;;;;;;5.53;2.10;;;;;;;;;;5075786;28;20456;-69
2022/07/19 10:40:45;;;;;;;4.70;3.00;;;;;;;;;;5079057;28;20482;-69
2022/07/19 10:43:14;;;;;;;4.30;2.53;;;;;;;;;;5089645;28;20555;-70
2022/07/19 10:45:43;;;;;;;3.77;2.60;;;;;;;;;;5064392;28;20469;-70
2022/07/19 10:48:25;;;;;;;3.23;2.70;;;;;;;;;;5079971;28;20453;-69
2022/07/19 10:50:54;;;;;;;3.73;2.40;;;;;;;;;;5076270;28;20470;-69
2022/07/19 10:53:52;;;;;;;5.37;2.40;;;;;;;;;;5085111;28;20908;-69
2022/07/19 10:56:38;;;;;;;3.53;2.50;;;;;;;;;;5020619;28;21229;-70
2022/07/19 10:59:07;;;;;;;2.87;2.10;;;;;;;;;;5074469;28;20736;-69
2022/07/19 11:01:40;;;;;;;3.47;2.40;;;;;;;;;;5075739;28;20595;-71
2022/07/19 11:04:31;;;;;;;5.13;2.20;;;;;;;;;;5074145;28;20840;-70
2022/07/19 11:07:19;;;;;;;3.97;2.77;;;;;;;;;;5083043;28;21114;-70
2022/07/19 11:09:48;;;;;;;4.60;2.40;;;;;;;;;;5087903;28;20441;-70
2022/07/19 11:12:24;;;;;;;10.00;3.03;;;;;;;;;;5072592;28;20533;-70
2022/07/19 11:15:02;;;;;;;3.40;2.33;;;;;;;;;;5076408;28;20483;-71
2022/07/19 11:17:31;;;;;;;3.97;2.60;;;;;;;;;;5078149;28;20836;-70
2022/07/19 11:20:04;;;;;;;7.30;2.27;;;;;;;;;;5079662;28;20464;-70
2022/07/19 11:22:41;;;;;;;3.20;2.33;;;;;;;;;;5075239;28;20533;-70
2022/07/19 11:25:10;;;;;;;4.97;2.50;;;;;;;;;;5074210;28;20478;-69
2022/07/19 11:27:56;;;;;;;3.80;2.03;;;;;;;;;;5078782;28;20464;-70
2022/07/19 11:30:28;;;;;;;4.30;2.23;;;;;;;;;;5080176;28;20533;-70
2022/07/19 11:32:57;;;;;;;6.17;3.10;;;;;;;;;;5085038;28;20467;-69
2022/07/19 11:35:26;;;;;;;3.13;2.20;;;;;;;;;;5075008;28;20464;-70
2022/07/19 11:37:58;;;;;;;4.00;2.40;;;;;;;;;;5072828;28;20472;-70
2022/07/19 11:40:49;;;;;;;4.60;2.33;;;;;;;;;;5075640;28;20460;-69
2022/07/19 11:43:23;;;;;;;3.70;2.37;;;;;;;;;;5073220;28;20673;-69
2022/07/19 11:45:58;;;;;;;3.13;2.00;;;;;;;;;;5074787;28;20460;-70
2022/07/19 11:48:29;;;;;;;3.83;1.60;;;;;;;;;;5074050;28;20515;-69
2022/07/19 11:51:04;;;;;;;4.37;2.23;;;;;;;;;;5076962;28;21037;-69
2022/07/19 11:53:34;;;;;;;5.90;2.50;;;;;;;;;;5081721;28;20578;-70
2022/07/19 11:56:03;;;;;;;4.33;2.17;;;;;;;;;;5077625;28;20496;-70
2022/07/19 11:58:33;;;;;;;3.00;1.83;;;;;;;;;;5068069;28;20471;-69
2022/07/19 12:01:12;;;;;;;3.30;2.37;;;;;;;;;;5078104;28;20463;-70
2022/07/19 12:03:41;;;;;;;3.50;2.20;;;;;;;;;;5072304;28;20464;-70
2022/07/19 12:06:09;;;;;;;3.23;1.93;;;;;;;;;;5070460;28;20566;-69
2022/07/19 12:08:40;;;;;;;4.20;3.00;;;;;;;;;;5077112;28;20547;-70
2022/07/19 12:11:21;;;;;;;4.27;2.33;;;;;;;;;;5079834;28;20709;-70
2022/07/19 12:14:00;;;;;;;4.00;2.17;;;;;;;;;;5074093;28;21300;-71
2022/07/19 12:16:34;;;;;;;6.83;2.30;;;;;;;;;;5073883;28;20460;-70
2022/07/19 12:19:37;;;;;;;4.20;2.47;;;;;;;;;;5079612;28;20467;-69
2022/07/19 12:22:27;;;;;;;4.40;2.30;;;;;;;;;;5086514;28;20477;-69
2022/07/19 12:24:55;;;;;;;5.87;2.97;;;;;;;;;;5073049;28;20484;-69
2022/07/19 12:27:27;;;;;;;3.13;2.00;;;;;;;;;;5079109;28;20499;-70
2022/07/19 12:29:58;;;;;;;2.50;1.67;;;;;;;;;;5091851;28;20466;-70
2022/07/19 12:32:31;;;;;;;7.47;5.53;;;;;;;;;;5077096;28;20503;-69
2022/07/19 12:35:00;;;;;;;4.13;2.53;;;;;;;;;;5073329;28;20747;-69
2022/07/19 12:37:29;;;;;;;3.10;2.13;;;;;;;;;;5075806;28;20476;-69
2022/07/19 12:40:01;;;;;;;6.80;1.93;;;;;;;;;;5077333;28;20468;-71
2022/07/19 12:42:59;;;;;;;2.90;1.73;;;;;;;;;;5076756;28;20818;-69
2022/07/19 12:45:29;;;;;;;3.50;2.10;;;;;;;;;;5058530;28;20550;-71
2022/07/19 12:48:02;;;;;;;3.60;1.30;;;;;;;;;;5086178;28;20476;-71
2022/07/19 12:50:33;;;;;;;3.20;1.93;;;;;;;;;;5079471;28;20470;-71
2022/07/19 12:53:09;;;;;;;7.30;1.93;;;;;;;;;;5077042;28;20547;-71
2022/07/19 12:55:40;;;;;;;4.43;2.50;;;;;;;;;;5075011;28;20491;-70
2022/07/19 12:58:11;;;;;;;6.77;2.30;;;;;;;;;;5086686;28;20541;-70
2022/07/19 13:00:48;;;;;;;6.20;2.03;;;;;;;;;;5078784;28;20460;-69
2022/07/19 13:03:21;;;;;;;4.20;1.70;;;;;;;;;;5078410;28;20558;-70
2022/07/19 13:05:52;;;;;;;6.47;2.60;;;;;;;;;;5074937;28;20468;-70
2022/07/19 13:08:20;;;;;;;5.63;2.30;;;;;;;;;;5076751;28;20460;-69
2022/07/19 13:10:50;;;;;;;3.40;2.20;;;;;;;;;;5079505;28;20464;-70
2022/07/19 13:13:18;;;;;;;3.80;2.50;;;;;;;;;;5076533;28;20551;-68
2022/07/19 13:15:45;;;;;;;3.40;1.47;;;;;;;;;;5078841;28;20566;-69
2022/07/19 13:18:30;;;;;;;3.07;1.70;;;;;;;;;;5083116;28;20550;-69
2022/07/19 13:21:03;;;;;;;4.87;1.90;;;;;;;;;;5052176;28;20461;-69
2022/07/19 13:23:31;;;;;;;5.10;1.80;;;;;;;;;;5083407;28;20614;-69
2022/07/19 13:25:59;;;;;;;3.20;2.10;;;;;;;;;;5079333;28;20890;-69
2022/07/19 13:28:27;;;;;;;5.20;2.13;;;;;;;;;;5085572;28;20544;-69
2022/07/19 13:30:55;;;;;;;4.00;2.50;;;;;;;;;;5077750;28;20522;-69
2022/07/19 13:33:27;;;;;;;3.63;2.37;;;;;;;;;;5100635;28;20548;-68
2022/07/19 13:35:58;;;;;;;4.00;1.80;;;;;;;;;;5069509;28;20740;-68
2022/07/19 13:38:32;;;;;;;2.97;1.70;;;;;;;;;;5076360;28;20465;-70
2022/07/19 13:41:02;;;;;;;10.33;2.27;;;;;;;;;;5061950;28;20461;-69
2022/07/19 13:43:31;;;;;;;3.93;2.20;;;;;;;;;;5073883;28;20461;-69
2022/07/19 13:45:59;;;;;;;3.07;1.80;;;;;;;;;;5070734;28;20561;-68
2022/07/19 13:48:28;;;;;;;3.93;2.80;;;;;;;;;;5077242;28;20543;-68
2022/07/19 13:50:56;;;;;;;2.90;1.90;;;;;;;;;;5079081;28;20531;-69
2022/07/19 13:53:27;;;;;;;3.27;2.13;;;;;;;;;;5075727;28;20458;-69
2022/07/19 13:55:57;;;;;;;4.50;2.80;;;;;;;;;;5081984;28;20916;-69
2022/07/19 13:58:25;;;;;;;3.60;2.30;;;;;;;;;;5069902;28;20468;-69
2022/07/19 14:00:52;;;;;;;3.00;2.17;;;;;;;;;;5070476;28;20929;-69
2022/07/19 14:03:20;;;;;;;4.50;2.10;;;;;;;;;;5083682;28;20456;-69
2022/07/19 14:05:50;;;;;;;7.93;3.17;;;;;;;;;;5076250;28;20471;-70
2022/07/19 14:08:18;;;;;;;3.10;2.20;;;;;;;;;;5071456;28;20463;-69
2022/07/19 14:10:48;;;;;;;6.13;2.33;;;;;;;;;;5076413;28;20603;-69
2022/07/19 14:13:23;;;;;;;5.33;2.20;;;;;;;;;;5073028;28;20485;-71
2022/07/19 14:15:52;;;;;;;4.20;2.90;;;;;;;;;;5076224;28;20479;-69
2022/07/19 14:18:20;;;;;;;4.60;2.47;;;;;;;;;;5085989;28;20892;-69
2022/07/19 14:20:54;;;;;;;6.83;1.97;;;;;;;;;;5083780;28;20593;-69
2022/07/19 14:23:21;;;;;;;4.23;2.60;;;;;;;;;;5078795;28;20547;-70
2022/07/19 14:25:49;;;;;;;4.20;2.17;;;;;;;;;;5076355;28;20455;-70
2022/07/19 14:28:17;;;;;;;7.93;2.77;;;;;;;;;;5080780;28;20517;-70
2022/07/19 14:30:45;;;;;;;6.73;2.70;;;;;;;;;;5084278;28;20458;-69
2022/07/19 14:33:15;;;;;;;5.00;1.80;;;;;;;;;;5070233;28;20460;-69
2022/07/19 14:35:43;;;;;;;3.60;2.27;;;;;;;;;;5081621;28;20503;-69
2022/07/19 14:38:12;;;;;;;4.00;2.30;;;;;;;;;;5082934;28;20862;-69
2022/07/19 14:40:40;;;;;;;4.60;2.40;;;;;;;;;;5086813;28;20489;-70
2022/07/19 14:43:09;;;;;;;3.37;2.47;;;;;;;;;;5078765;28;20460;-69
2022/07/19 14:45:38;;;;;;;5.10;2.73;;;;;;;;;;5080626;28;20468;-70
2022/07/19 14:48:07;;;;;;;5.60;3.00;;;;;;;;;;5073728;28;20453;-70
2022/07/19 14:50:35;;;;;;;3.40;2.10;;;;;;;;;;5077480;28;20499;-69
2022/07/19 14:53:05;;;;;;;3.57;2.60;;;;;;;;;;5068324;28;20482;-71
2022/07/19 14:55:38;;;;;;;3.63;2.30;;;;;;;;;;5077036;28;21158;-68
2022/07/19 14:58:06;;;;;;;4.00;2.60;;;;;;;;;;5075789;28;20557;-70
2022/07/19 15:00:34;;;;;;;4.80;2.30;;;;;;;;;;5086858;28;20448;-69
2022/07/19 15:03:02;;;;;;;4.63;2.50;;;;;;;;;;5075608;28;20490;-70
2022/07/19 15:05:30;;;;;;;3.40;2.27;;;;;;;;;;5069383;28;20460;-69
2022/07/19 15:08:00;;;;;;;3.13;2.00;;;;;;;;;;5070290;28;20492;-69
2022/07/19 15:10:28;;;;;;;7.10;2.20;;;;;;;;;;5074204;28;20489;-68